createdAt,value
2024-03-11T00:00:16.637Z,11.92
2024-03-11T00:02:43.932Z,11.90
2024-03-11T00:05:12.959Z,12.04
2024-03-11T00:07:44.057Z,12.05
2024-03-11T00:10:13.964Z,11.93
2024-03-11T00:12:42.001Z,11.69
2024-03-11T00:15:09.241Z,11.98
2024-03-11T00:17:35.753Z,11.99
2024-03-11T00:20:02.619Z,12.00
2024-03-11T00:22:29.136Z,11.98
2024-03-11T00:24:55.632Z,11.95
2024-03-11T00:27:23.061Z,11.82
2024-03-11T00:29:51.679Z,11.67
2024-03-11T00:32:18.228Z,11.69
2024-03-11T00:34:44.752Z,11.74
2024-03-11T00:37:13.622Z,11.47
2024-03-11T00:39:40.174Z,11.47
2024-03-11T00:42:07.538Z,11.37
2024-03-11T00:44:34.048Z,11.46
2024-03-11T00:47:00.606Z,11.59
2024-03-11T00:49:27.727Z,11.66
2024-03-11T00:51:54.224Z,11.73
2024-03-11T00:54:21.631Z,11.88
2024-03-11T00:56:48.153Z,11.73
2024-03-11T00:59:15.599Z,11.59
2024-03-11T01:01:42.077Z,11.47
2024-03-11T01:04:11.347Z,11.66
2024-03-11T01:06:37.850Z,11.60
2024-03-11T01:09:05.257Z,11.72
2024-03-11T01:11:31.711Z,11.58
2024-03-11T01:13:58.395Z,11.43
2024-03-11T01:16:25.107Z,11.36
2024-03-11T01:18:51.548Z,11.52
2024-03-11T01:21:18.859Z,11.62
2024-03-11T01:23:48.322Z,11.74
2024-03-11T01:26:15.312Z,11.75
2024-03-11T01:28:42.269Z,11.65
2024-03-11T01:31:08.880Z,11.48
2024-03-11T01:33:35.554Z,11.21
2024-03-11T01:36:02.554Z,11.31
2024-03-11T01:38:29.195Z,11.32
2024-03-11T01:40:56.599Z,11.28
2024-03-11T01:43:23.448Z,11.26
2024-03-11T01:45:50.585Z,11.08
2024-03-11T01:48:17.859Z,11.00
2024-03-11T01:50:44.660Z,10.65
2024-03-11T01:53:11.466Z,10.78
2024-03-11T01:55:38.952Z,10.48
2024-03-11T01:58:07.860Z,10.71
2024-03-11T02:00:35.821Z,10.52
2024-03-11T02:03:02.263Z,10.35
2024-03-11T02:05:29.557Z,10.28
2024-03-11T02:08:02.585Z,10.32
2024-03-11T02:10:29.886Z,10.63
2024-03-11T02:12:59.268Z,10.49
2024-03-11T02:15:26.503Z,10.94
2024-03-11T02:17:55.091Z,10.77
2024-03-11T02:20:23.147Z,10.71
2024-03-11T02:22:54.392Z,10.52
2024-03-11T02:25:23.351Z,10.58
2024-03-11T02:27:50.743Z,10.13
2024-03-11T02:30:17.582Z,10.41
2024-03-11T02:32:45.893Z,10.80
2024-03-11T02:35:15.689Z,10.90
2024-03-11T02:37:46.729Z,10.76
2024-03-11T02:40:15.385Z,10.77
2024-03-11T02:42:42.104Z,10.35
2024-03-11T02:45:15.431Z,10.49
2024-03-11T02:47:42.793Z,10.64
2024-03-11T02:50:09.990Z,10.46
2024-03-11T02:52:40.271Z,10.80
2024-03-11T02:55:07.895Z,10.97
2024-03-11T02:57:34.577Z,10.89
2024-03-11T03:00:01.413Z,10.78
2024-03-11T03:02:28.414Z,11.03
2024-03-11T03:04:57.044Z,10.83
2024-03-11T03:07:26.690Z,11.00
2024-03-11T03:09:54.012Z,11.17
2024-03-11T03:12:21.140Z,10.87
2024-03-11T03:14:47.763Z,10.90
2024-03-11T03:17:14.299Z,10.91
2024-03-11T03:19:40.745Z,10.93
2024-03-11T03:22:09.049Z,10.72
2024-03-11T03:24:35.659Z,10.66
2024-03-11T03:27:02.130Z,10.68
2024-03-11T03:29:28.687Z,10.42
2024-03-11T03:31:55.121Z,10.19
2024-03-11T03:34:21.638Z,10.11
2024-03-11T03:36:48.155Z,10.28
2024-03-11T03:39:14.727Z,10.32
2024-03-11T03:41:41.226Z,10.27
2024-03-11T03:44:07.874Z,10.04
2024-03-11T03:46:35.010Z,9.92
2024-03-11T03:49:01.898Z,10.18
2024-03-11T03:51:28.375Z,10.31
2024-03-11T03:53:54.922Z,10.06
2024-03-11T03:56:21.486Z,10.16
2024-03-11T03:58:48.028Z,10.33
2024-03-11T04:01:14.520Z,10.40
2024-03-11T04:03:43.253Z,10.41
2024-03-11T04:06:10.571Z,10.40
2024-03-11T04:08:37.024Z,10.31
2024-03-11T04:11:03.658Z,10.06
2024-03-11T04:13:30.145Z,10.39
2024-03-11T04:15:57.895Z,10.31
2024-03-11T04:18:27.762Z,10.26
2024-03-11T04:20:57.270Z,10.17
2024-03-11T04:23:27.305Z,9.65
2024-03-11T04:25:53.824Z,9.75
2024-03-11T04:28:20.290Z,9.24
2024-03-11T04:30:46.847Z,9.67
2024-03-11T04:33:16.858Z,9.38
2024-03-11T04:35:43.795Z,9.56
2024-03-11T04:38:11.563Z,9.56
2024-03-11T04:40:40.124Z,9.72
2024-03-11T04:43:07.006Z,9.57
2024-03-11T04:45:35.887Z,9.67
2024-03-11T04:48:03.108Z,9.66
2024-03-11T04:50:32.372Z,9.76
2024-03-11T04:53:01.647Z,9.79
2024-03-11T04:55:28.942Z,9.75
2024-03-11T04:57:56.687Z,9.67
2024-03-11T05:00:27.702Z,9.98
2024-03-11T05:03:02.316Z,9.90
2024-03-11T05:05:33.077Z,10.01
2024-03-11T05:07:59.863Z,9.94
2024-03-11T05:10:27.337Z,9.92
2024-03-11T05:12:54.025Z,9.80
2024-03-11T05:15:20.721Z,9.89
2024-03-11T05:17:47.422Z,9.72
2024-03-11T05:20:17.043Z,10.04
2024-03-11T05:22:47.618Z,10.03
2024-03-11T05:25:16.221Z,10.16
2024-03-11T05:27:44.140Z,10.10
2024-03-11T05:30:11.089Z,10.00
2024-03-11T05:32:37.793Z,9.90
2024-03-11T05:35:04.666Z,9.81
2024-03-11T05:37:33.823Z,10.17
2024-03-11T05:40:00.712Z,10.14
2024-03-11T05:42:27.448Z,10.02
2024-03-11T05:44:57.069Z,9.90
2024-03-11T05:47:27.097Z,9.83
2024-03-11T05:49:55.306Z,9.89
2024-03-11T05:52:25.969Z,10.17
2024-03-11T05:54:58.150Z,10.06
2024-03-11T05:57:27.887Z,9.94
2024-03-11T05:59:54.563Z,9.82
2024-03-11T06:02:21.916Z,9.78
2024-03-11T06:04:48.891Z,9.89
2024-03-11T06:07:25.278Z,9.96
2024-03-11T06:09:52.600Z,9.61
2024-03-11T06:12:22.215Z,9.77
2024-03-11T06:14:49.974Z,9.87
2024-03-11T06:17:17.460Z,9.33
2024-03-11T06:19:44.662Z,9.53
2024-03-11T06:22:11.566Z,9.76
2024-03-11T06:24:39.487Z,9.90
2024-03-11T06:27:06.019Z,9.75
2024-03-11T06:29:33.470Z,10.22
2024-03-11T06:31:59.991Z,9.79
2024-03-11T06:34:28.680Z,10.28
2024-03-11T06:36:56.349Z,10.71
2024-03-11T06:39:22.994Z,11.07
2024-03-11T06:41:49.556Z,11.49
2024-03-11T06:44:20.610Z,11.56
2024-03-11T06:46:49.009Z,11.33
2024-03-11T06:49:15.779Z,12.05
2024-03-11T06:51:42.294Z,12.63
2024-03-11T06:54:08.740Z,13.09
2024-03-11T06:56:35.303Z,13.65
2024-03-11T06:59:01.910Z,14.00
2024-03-11T07:01:29.157Z,14.29
2024-03-11T07:03:56.552Z,13.92
2024-03-11T07:06:24.208Z,12.87
2024-03-11T07:08:51.325Z,13.05
2024-03-11T07:11:18.296Z,12.81
2024-03-11T07:13:44.833Z,12.71
2024-03-11T07:16:13.248Z,12.86
2024-03-11T07:18:43.270Z,13.19
2024-03-11T07:21:13.438Z,13.10
2024-03-11T07:23:39.835Z,14.50
2024-03-11T07:26:06.357Z,13.77
2024-03-11T07:28:33.397Z,14.23
2024-03-11T07:31:00.606Z,13.99
2024-03-11T07:33:28.075Z,13.51
2024-03-11T07:35:55.740Z,13.14
2024-03-11T07:38:24.503Z,12.67
2024-03-11T07:40:51.426Z,12.60
2024-03-11T07:43:18.373Z,12.52
2024-03-11T07:45:45.074Z,12.55
2024-03-11T07:48:13.592Z,12.59
2024-03-11T07:50:40.613Z,12.48
2024-03-11T07:53:07.161Z,12.03
2024-03-11T07:55:36.917Z,12.02
2024-03-11T07:58:03.560Z,11.83
2024-03-11T08:00:33.074Z,11.61
2024-03-11T08:03:00.534Z,11.88
2024-03-11T08:05:28.671Z,11.56
2024-03-11T08:07:58.102Z,11.99
2024-03-11T08:10:27.002Z,12.34
2024-03-11T08:12:53.725Z,12.28
2024-03-11T08:15:21.917Z,12.27
2024-03-11T08:17:51.064Z,12.05
2024-03-11T08:20:21.542Z,12.17
2024-03-11T08:22:50.443Z,12.45
2024-03-11T08:25:19.235Z,12.66
2024-03-11T08:27:45.700Z,12.63
2024-03-11T08:30:12.717Z,12.59
2024-03-11T08:32:40.070Z,12.72
2024-03-11T08:35:06.743Z,12.32
2024-03-11T08:37:33.152Z,12.42
2024-03-11T08:39:59.713Z,12.48
2024-03-11T08:42:27.345Z,12.75
2024-03-11T08:44:53.949Z,12.67
2024-03-11T08:47:20.934Z,12.97
2024-03-11T08:49:47.606Z,13.02
2024-03-11T08:52:14.887Z,13.31
2024-03-11T08:54:41.902Z,13.42
2024-03-11T08:57:13.789Z,13.57
2024-03-11T08:59:41.002Z,13.86
2024-03-11T09:02:10.621Z,13.78
2024-03-11T09:04:37.437Z,13.99
2024-03-11T09:07:05.441Z,14.28
2024-03-11T09:09:33.359Z,14.10
2024-03-11T09:12:01.790Z,13.66
2024-03-11T09:14:32.611Z,13.77
2024-03-11T09:17:01.440Z,14.03
2024-03-11T09:19:34.462Z,14.02
2024-03-11T09:22:01.024Z,14.35
2024-03-11T09:24:27.883Z,14.39
2024-03-11T09:26:55.149Z,14.64
2024-03-11T09:29:23.202Z,14.77
2024-03-11T09:31:50.328Z,14.87
2024-03-11T09:34:18.319Z,14.86
2024-03-11T09:36:45.594Z,14.75
2024-03-11T09:39:14.939Z,14.64
2024-03-11T09:41:46.869Z,14.43
2024-03-11T09:44:21.998Z,14.54
2024-03-11T09:46:52.360Z,14.43
2024-03-11T09:49:24.241Z,14.76
2024-03-11T09:51:55.466Z,14.72
2024-03-11T09:54:23.448Z,14.28
2024-03-11T09:56:52.436Z,14.69
2024-03-11T09:59:21.232Z,14.78
2024-03-11T10:01:55.278Z,15.10
2024-03-11T10:04:27.581Z,15.33
2024-03-11T10:06:58.581Z,15.38
2024-03-11T10:09:47.370Z,15.68
2024-03-11T10:12:16.520Z,15.42
2024-03-11T10:14:44.222Z,15.35
2024-03-11T10:17:21.092Z,15.39
2024-03-11T10:19:55.776Z,15.58
2024-03-11T10:22:24.859Z,15.65
2024-03-11T10:24:58.394Z,15.89
2024-03-11T10:27:32.799Z,15.81
2024-03-11T10:30:22.314Z,15.72
2024-03-11T10:32:56.536Z,15.37
2024-03-11T10:35:28.053Z,15.80
2024-03-11T10:38:13.906Z,16.53
2024-03-11T10:40:42.504Z,16.50
2024-03-11T10:43:23.000Z,16.67
2024-03-11T10:45:49.628Z,16.76
2024-03-11T10:48:19.348Z,17.07
2024-03-11T10:50:46.043Z,17.26
2024-03-11T10:53:31.463Z,17.63
2024-03-11T10:55:59.879Z,17.72
2024-03-11T10:58:29.915Z,17.62
2024-03-11T11:01:02.027Z,18.24
2024-03-11T11:03:32.038Z,18.35
2024-03-11T11:06:10.820Z,17.60
2024-03-11T11:08:38.592Z,17.28
2024-03-11T11:11:06.481Z,17.98
2024-03-11T11:13:35.942Z,18.46
2024-03-11T11:16:04.647Z,18.52
2024-03-11T11:18:37.645Z,18.57
2024-03-11T11:21:11.318Z,18.42
2024-03-11T11:23:39.068Z,18.58
2024-03-11T11:26:06.042Z,18.89
2024-03-11T11:28:40.886Z,19.04
2024-03-11T11:31:16.251Z,19.39
2024-03-11T11:33:55.061Z,19.23
2024-03-11T11:36:30.939Z,19.12
2024-03-11T11:38:59.398Z,19.59
2024-03-11T11:41:38.576Z,19.29
2024-03-11T11:44:05.258Z,19.05
2024-03-11T11:46:51.776Z,19.54
2024-03-11T11:49:24.993Z,19.18
2024-03-11T11:51:55.713Z,18.68
2024-03-11T11:54:35.717Z,18.76
2024-03-11T11:57:13.275Z,18.36
2024-03-11T11:59:41.823Z,18.51
2024-03-11T12:02:20.676Z,18.30
2024-03-11T12:04:51.958Z,18.62
2024-03-11T12:07:24.674Z,18.91
2024-03-11T12:09:53.186Z,18.64
2024-03-11T12:12:31.747Z,20.17
2024-03-11T12:15:02.542Z,21.25
2024-03-11T12:17:33.553Z,21.70
2024-03-11T12:20:25.548Z,22.52
2024-03-11T12:23:02.186Z,21.75
2024-03-11T12:25:30.188Z,21.93
2024-03-11T12:28:09.077Z,22.36
2024-03-11T12:30:39.253Z,22.31
2024-03-11T12:33:08.274Z,21.89
2024-03-11T12:35:38.441Z,21.98
2024-03-11T12:38:06.475Z,21.78
2024-03-11T12:40:36.096Z,22.76
2024-03-11T12:43:23.394Z,23.98
2024-03-11T12:45:55.562Z,24.80
2024-03-11T12:48:26.478Z,24.44
2024-03-11T12:50:58.134Z,24.52
2024-03-11T12:53:26.830Z,24.79
2024-03-11T12:56:12.271Z,25.50
2024-03-11T12:58:40.378Z,25.86
2024-03-11T13:01:14.629Z,26.05
2024-03-11T13:03:42.975Z,25.69
2024-03-11T13:06:16.697Z,25.65
2024-03-11T13:08:43.214Z,25.82
2024-03-11T13:11:10.612Z,25.53
2024-03-11T13:13:42.408Z,24.72
2024-03-11T13:16:11.053Z,23.95
2024-03-11T13:18:40.997Z,24.79
2024-03-11T13:21:08.634Z,24.97
2024-03-11T13:23:39.472Z,25.68
2024-03-11T13:26:12.935Z,26.31
2024-03-11T13:28:40.221Z,25.40
2024-03-11T13:31:12.484Z,25.17
2024-03-11T13:33:44.181Z,25.62
2024-03-11T13:36:11.828Z,24.48
2024-03-11T13:38:38.784Z,23.20
2024-03-11T13:41:06.810Z,23.40
2024-03-11T13:43:34.220Z,22.78
2024-03-11T13:46:01.242Z,22.39
2024-03-11T13:48:28.529Z,22.43
2024-03-11T13:50:58.003Z,21.93
2024-03-11T13:53:25.046Z,21.56
2024-03-11T13:55:53.944Z,21.30
2024-03-11T13:58:21.189Z,20.94
2024-03-11T14:00:50.916Z,20.46
2024-03-11T14:03:18.031Z,20.14
2024-03-11T14:05:44.677Z,19.95
2024-03-11T14:08:11.825Z,19.93
2024-03-11T14:10:38.253Z,19.89
2024-03-11T14:13:04.951Z,19.83
2024-03-11T14:15:31.370Z,20.06
2024-03-11T14:17:59.468Z,20.19
2024-03-11T14:20:31.772Z,20.12
2024-03-11T14:22:59.436Z,20.17
2024-03-11T14:25:27.355Z,20.63
2024-03-11T14:27:54.189Z,21.01
2024-03-11T14:30:25.675Z,21.37
2024-03-11T14:32:53.751Z,21.72
2024-03-11T14:35:22.007Z,21.86
2024-03-11T14:37:48.576Z,21.69
2024-03-11T14:40:43.422Z,21.50
2024-03-11T14:43:12.081Z,21.07
2024-03-11T14:45:40.010Z,20.66
2024-03-11T14:48:15.876Z,20.76
2024-03-11T14:50:46.424Z,20.87
2024-03-11T14:53:16.633Z,20.54
2024-03-11T14:55:44.607Z,20.57
2024-03-11T14:58:20.480Z,20.69
2024-03-11T15:00:59.026Z,20.71
2024-03-11T15:03:27.697Z,20.37
2024-03-11T15:05:54.442Z,20.51
2024-03-11T15:08:22.579Z,20.40
2024-03-11T15:10:50.861Z,20.36
2024-03-11T15:13:18.409Z,20.54
2024-03-11T15:15:48.958Z,20.31
2024-03-11T15:18:18.322Z,20.27
2024-03-11T15:20:51.172Z,20.27
2024-03-11T15:23:24.679Z,20.27
2024-03-11T15:25:55.024Z,20.12
2024-03-11T15:28:21.827Z,19.83
2024-03-11T15:30:48.465Z,19.53
2024-03-11T15:33:18.836Z,19.31
2024-03-11T15:35:50.437Z,19.65
2024-03-11T15:38:17.962Z,19.40
2024-03-11T15:40:44.845Z,19.39
2024-03-11T15:43:11.502Z,19.28
2024-03-11T15:45:39.788Z,19.19
2024-03-11T15:48:06.768Z,18.98
2024-03-11T15:50:35.874Z,18.80
2024-03-11T15:53:04.233Z,18.82
2024-03-11T15:55:33.193Z,18.73
2024-03-11T15:58:04.808Z,18.65
2024-03-11T16:00:37.149Z,18.58
2024-03-11T16:03:09.746Z,18.52
2024-03-11T16:05:38.480Z,18.42
2024-03-11T16:08:05.921Z,18.48
2024-03-11T16:10:32.911Z,18.50
2024-03-11T16:12:59.498Z,18.57
2024-03-11T16:15:26.582Z,18.74
2024-03-11T16:17:57.992Z,18.70
2024-03-11T16:20:29.257Z,18.68
2024-03-11T16:22:57.609Z,18.43
2024-03-11T16:25:27.555Z,18.56
2024-03-11T16:27:55.846Z,18.36
2024-03-11T16:30:24.234Z,18.51
2024-03-11T16:32:53.575Z,18.52
2024-03-11T16:35:35.680Z,18.65
2024-03-11T16:38:03.916Z,18.35
2024-03-11T16:40:30.666Z,18.04
2024-03-11T16:43:02.023Z,18.01
2024-03-11T16:45:28.774Z,17.92
2024-03-11T16:47:58.637Z,17.74
2024-03-11T16:50:25.267Z,17.93
2024-03-11T16:52:54.047Z,17.96
2024-03-11T16:55:32.139Z,17.73
2024-03-11T16:57:59.343Z,17.81
2024-03-11T17:00:29.193Z,17.59
2024-03-11T17:02:55.948Z,17.45
2024-03-11T17:05:24.812Z,17.56
2024-03-11T17:07:56.083Z,17.48
2024-03-11T17:10:30.246Z,17.38
2024-03-11T17:13:05.023Z,17.26
2024-03-11T17:15:35.474Z,17.25
2024-03-11T17:18:02.687Z,17.08
2024-03-11T17:20:40.908Z,17.19
2024-03-11T17:23:10.111Z,17.25
2024-03-11T17:25:39.121Z,17.35
2024-03-11T17:28:08.963Z,17.12
2024-03-11T17:30:35.612Z,17.03
2024-03-11T17:33:15.201Z,17.17
2024-03-11T17:35:46.788Z,16.95
2024-03-11T17:38:14.803Z,16.76
2024-03-11T17:40:45.125Z,16.55
2024-03-11T17:43:14.584Z,16.37
2024-03-11T17:45:45.971Z,16.32
2024-03-11T17:48:17.867Z,16.38
2024-03-11T17:50:45.185Z,16.19
2024-03-11T17:53:14.832Z,16.18
2024-03-11T17:55:42.574Z,16.47
2024-03-11T17:58:12.194Z,16.18
2024-03-11T18:00:41.020Z,16.13
2024-03-11T18:03:08.501Z,16.03
2024-03-11T18:05:36.555Z,16.06
2024-03-11T18:08:05.883Z,16.07
2024-03-11T18:10:33.611Z,15.95
2024-03-11T18:13:01.673Z,15.85
2024-03-11T18:15:28.984Z,15.71
2024-03-11T18:17:56.067Z,15.77
2024-03-11T18:20:32.173Z,15.60
2024-03-11T18:23:01.173Z,15.46
2024-03-11T18:25:32.270Z,15.70
2024-03-11T18:28:03.348Z,15.60
2024-03-11T18:30:30.105Z,15.48
2024-03-11T18:32:57.954Z,15.66
2024-03-11T18:35:26.767Z,15.68
2024-03-11T18:37:57.596Z,15.70
2024-03-11T18:40:25.110Z,15.68
2024-03-11T18:42:53.051Z,15.65
2024-03-11T18:45:24.210Z,15.62
2024-03-11T18:47:51.613Z,15.49
2024-03-11T18:50:20.251Z,15.41
2024-03-11T18:52:53.839Z,15.31
2024-03-11T18:55:26.003Z,15.36
2024-03-11T18:57:54.078Z,15.27
2024-03-11T19:00:24.060Z,15.36
2024-03-11T19:02:54.046Z,15.26
2024-03-11T19:05:20.901Z,15.40
2024-03-11T19:07:47.876Z,15.34
2024-03-11T19:10:18.066Z,15.25
2024-03-11T19:12:47.911Z,15.33
2024-03-11T19:15:16.289Z,15.42
2024-03-11T19:17:46.535Z,15.23
2024-03-11T19:20:17.850Z,15.11
2024-03-11T19:22:46.573Z,15.21
2024-03-11T19:25:19.092Z,15.18
2024-03-11T19:27:46.847Z,15.21
2024-03-11T19:30:14.697Z,15.09
2024-03-11T19:32:42.956Z,15.18
2024-03-11T19:35:15.285Z,15.09
2024-03-11T19:38:40.568Z,15.03
2024-03-11T19:41:18.037Z,14.91
2024-03-11T19:44:16.681Z,15.09
2024-03-11T19:46:55.701Z,15.00
2024-03-11T19:49:40.712Z,15.13
2024-03-11T19:52:47.610Z,15.32
2024-03-11T19:55:32.464Z,15.36
2024-03-11T19:59:00.013Z,15.18
2024-03-11T20:01:45.693Z,15.17
2024-03-11T20:04:37.138Z,15.23
2024-03-11T20:07:24.680Z,15.17
2024-03-11T20:10:20.390Z,15.28
2024-03-11T20:13:07.403Z,15.21
2024-03-11T20:15:42.638Z,15.07
2024-03-11T20:18:37.056Z,15.07
2024-03-11T20:21:31.663Z,15.32
2024-03-11T20:24:01.195Z,15.26
2024-03-11T20:26:49.527Z,15.20
2024-03-11T20:29:47.761Z,15.04
2024-03-11T20:32:41.248Z,15.05
2024-03-11T20:35:09.015Z,14.99
2024-03-11T20:37:35.563Z,15.18
2024-03-11T20:40:02.324Z,15.01
2024-03-11T20:42:34.749Z,15.21
2024-03-11T20:45:01.949Z,15.18
2024-03-11T20:47:28.487Z,15.02
2024-03-11T20:49:54.990Z,15.00
2024-03-11T20:52:21.519Z,14.96
2024-03-11T20:54:48.204Z,14.90
2024-03-11T20:57:15.358Z,14.89
2024-03-11T20:59:41.868Z,14.77
2024-03-11T21:02:09.255Z,14.77
2024-03-11T21:04:37.244Z,14.74
2024-03-11T21:07:06.430Z,14.77
2024-03-11T21:09:35.761Z,14.71
2024-03-11T21:12:04.766Z,14.79
2024-03-11T21:14:31.323Z,14.91
2024-03-11T21:16:57.843Z,14.91
2024-03-11T21:19:37.154Z,14.95
2024-03-11T21:22:15.851Z,14.96
2024-03-11T21:24:51.438Z,14.79
2024-03-11T21:27:25.678Z,14.84
2024-03-11T21:29:55.288Z,14.73
2024-03-11T21:32:23.858Z,14.70
2024-03-11T21:34:53.308Z,14.55
2024-03-11T21:37:20.361Z,14.56
2024-03-11T21:39:49.529Z,14.64
2024-03-11T21:42:16.021Z,14.55
2024-03-11T21:44:42.470Z,14.28
2024-03-11T21:47:09.507Z,14.52
2024-03-11T21:49:35.960Z,14.37
2024-03-11T21:52:02.591Z,14.07
2024-03-11T21:54:29.262Z,13.90
2024-03-11T21:56:55.814Z,13.86
2024-03-11T21:59:22.333Z,13.75
2024-03-11T22:01:48.783Z,13.38
2024-03-11T22:04:15.434Z,13.46
2024-03-11T22:06:42.023Z,13.36
2024-03-11T22:09:11.304Z,13.22
2024-03-11T22:11:40.276Z,13.31
2024-03-11T22:14:10.384Z,13.27
2024-03-11T22:16:40.283Z,13.34
2024-03-11T22:19:07.525Z,13.11
2024-03-11T22:21:34.493Z,12.98
2024-03-11T22:24:06.454Z,13.36
2024-03-11T22:26:36.333Z,13.25
2024-03-11T22:29:04.481Z,12.71
2024-03-11T22:31:30.993Z,12.87
2024-03-11T22:33:57.549Z,12.94
2024-03-11T22:36:24.219Z,12.72
2024-03-11T22:38:50.727Z,12.71
2024-03-11T22:41:28.153Z,12.52
2024-03-11T22:43:55.811Z,12.66
2024-03-11T22:46:22.351Z,12.72
2024-03-11T22:48:50.111Z,12.38
2024-03-11T22:51:19.173Z,12.28
2024-03-11T22:53:46.439Z,12.39
2024-03-11T22:56:13.893Z,12.24
2024-03-11T22:58:40.782Z,12.14
2024-03-11T23:01:10.231Z,12.18
2024-03-11T23:03:39.886Z,12.23
2024-03-11T23:06:08.279Z,12.41
2024-03-11T23:08:34.915Z,12.71
2024-03-11T23:11:02.455Z,12.57
2024-03-11T23:13:28.958Z,12.26
2024-03-11T23:15:55.495Z,12.25
2024-03-11T23:18:21.986Z,11.98
2024-03-11T23:20:48.902Z,11.58
2024-03-11T23:23:15.717Z,11.58
2024-03-11T23:25:42.303Z,11.70
2024-03-11T23:28:09.833Z,11.97
2024-03-11T23:30:37.040Z,11.91
2024-03-11T23:33:04.087Z,11.72
2024-03-11T23:35:30.577Z,12.02
2024-03-11T23:37:59.597Z,11.97
2024-03-11T23:40:26.085Z,11.92
2024-03-11T23:42:53.175Z,11.91
2024-03-11T23:45:21.070Z,11.83
2024-03-11T23:47:50.405Z,11.70
2024-03-11T23:50:25.461Z,11.88
2024-03-11T23:52:52.068Z,11.82
2024-03-11T23:55:21.145Z,11.84
2024-03-11T23:57:47.937Z,11.82
